Time;durP1;ratioP1;P1;durP2;ratioP2;P2;SDS_P1;SDS_P2;PMS_P1;PMS_P2;Temp;Humidity;BMP_temperature;BMP_pressure;BME280_temperature;BME280_humidity;BME280_pressure;Samples;Min_cycle;Max_cycle;Signal;HPM_P1;HPM_P2
2023/03/18 00:02:19;;;;;;;194.13;75.18;;;3.20;98.50;;;;;;5055613;28;20041;-76
2023/03/18 00:04:45;;;;;;;178.23;74.25;;;3.30;98.50;;;;;;5055550;28;20016;-75
2023/03/18 00:07:11;;;;;;;188.15;75.80;;;3.20;98.60;;;;;;5055892;28;20052;-76
2023/03/18 00:09:37;;;;;;;191.75;73.22;;;3.30;98.60;;;;;;5055308;28;20068;-76
2023/03/18 00:12:03;;;;;;;184.38;77.05;;;3.20;98.90;;;;;;5055542;28;20036;-75
2023/03/18 00:14:30;;;;;;;189.10;73.93;;;3.20;99.20;;;;;;5055539;28;20108;-76
2023/03/18 00:16:56;;;;;;;185.38;73.95;;;3.20;99.90;;;;;;5055440;28;20024;-76
2023/03/18 00:19:23;;;;;;;184.98;74.45;;;3.10;99.90;;;;;;5055807;28;20052;-74
2023/03/18 00:21:50;;;;;;;207.57;84.35;;;3.10;99.90;;;;;;5054045;28;20033;-74
2023/03/18 00:24:15;;;;;;;212.60;79.88;;;3.10;99.90;;;;;;5055165;28;20047;-76
2023/03/18 00:26:42;;;;;;;218.27;85.35;;;3.20;99.90;;;;;;5049050;28;20426;-75
2023/03/18 00:29:09;;;;;;;255.15;94.57;;;3.20;99.90;;;;;;5055333;28;20364;-76
2023/03/18 00:31:37;;;;;;;230.00;86.93;;;3.10;99.90;;;;;;5054778;28;20032;-77
2023/03/18 00:34:03;;;;;;;210.02;79.65;;;3.20;99.90;;;;;;5055468;28;20024;-75
2023/03/18 00:36:29;;;;;;;203.80;77.03;;;3.10;99.90;;;;;;5055462;28;20021;-77
2023/03/18 00:38:56;;;;;;;188.68;74.40;;;3.10;99.90;;;;;;5053424;28;20032;-74
2023/03/18 00:41:26;;;;;;;183.98;70.45;;;3.10;99.90;;;;;;5055227;28;20451;-75
2023/03/18 00:43:53;;;;;;;180.88;70.97;;;3.10;99.90;;;;;;5055027;28;20029;-76
2023/03/18 00:46:24;;;;;;;182.45;70.32;;;3.10;99.90;;;;;;5054905;28;20036;-75
2023/03/18 00:48:52;;;;;;;167.43;65.38;;;3.10;99.90;;;;;;5054856;28;20371;-76
2023/03/18 00:51:19;;;;;;;168.07;67.13;;;3.10;99.90;;;;;;5053788;28;20029;-76
2023/03/18 00:53:51;;;;;;;208.23;75.65;;;3.10;99.90;;;;;;5053588;28;20074;-75
2023/03/18 00:56:19;;;;;;;190.48;68.45;;;3.10;99.90;;;;;;5052494;28;20021;-74
2023/03/18 00:58:46;;;;;;;169.57;66.72;;;3.10;99.90;;;;;;5054960;28;20103;-75
2023/03/18 01:01:12;;;;;;;165.82;63.97;;;3.00;99.90;;;;;;5054470;28;20437;-75
2023/03/18 01:03:41;;;;;;;168.93;62.17;;;3.00;99.90;;;;;;5054795;28;20017;-75
2023/03/18 01:06:09;;;;;;;151.38;58.97;;;3.10;99.90;;;;;;5052947;28;20017;-75
2023/03/18 01:08:35;;;;;;;155.70;60.58;;;3.00;99.90;;;;;;5053563;28;20378;-75
2023/03/18 01:11:01;;;;;;;149.73;61.08;;;3.00;99.90;;;;;;5054710;28;20025;-76
2023/03/18 01:13:29;;;;;;;153.63;58.58;;;3.00;99.90;;;;;;5053134;28;20099;-77
2023/03/18 01:15:55;;;;;;;142.05;59.47;;;3.00;99.90;;;;;;5054900;28;20079;-75
2023/03/18 01:18:21;;;;;;;137.57;55.33;;;3.00;99.90;;;;;;5054681;28;20037;-77
2023/03/18 01:20:47;;;;;;;162.90;61.38;;;3.00;99.90;;;;;;5054269;28;20013;-75
2023/03/18 01:23:13;;;;;;;169.05;62.72;;;3.00;99.90;;;;;;5054453;28;20033;-74
2023/03/18 01:25:38;;;;;;;169.32;63.05;;;3.00;99.90;;;;;;5054487;28;20029;-75
2023/03/18 01:28:05;;;;;;;149.80;60.70;;;3.00;99.90;;;;;;5054269;28;20447;-75
2023/03/18 01:30:33;;;;;;;137.80;56.97;;;3.00;99.90;;;;;;5054288;28;20062;-76
2023/03/18 01:33:00;;;;;;;156.10;59.90;;;3.00;99.90;;;;;;5054056;28;20379;-75
2023/03/18 01:35:25;;;;;;;168.05;63.75;;;3.00;99.90;;;;;;5052672;28;20175;-75
2023/03/18 01:37:52;;;;;;;170.73;68.25;;;2.90;99.90;;;;;;5054522;28;20100;-76
2023/03/18 01:40:19;;;;;;;169.68;64.28;;;3.00;99.90;;;;;;5054268;28;20028;-76
2023/03/18 01:42:57;;;;;;;172.75;61.15;;;3.00;99.90;;;;;;5047867;28;20036;-76
2023/03/18 01:45:27;;;;;;;162.98;58.15;;;3.00;99.90;;;;;;5048538;28;20021;-75
2023/03/18 01:47:54;;;;;;;157.90;58.05;;;3.00;99.90;;;;;;5053996;28;20029;-75
2023/03/18 01:50:42;;;;;;;156.60;59.67;;;2.90;99.90;;;;;;5052599;28;20036;-75
2023/03/18 01:53:11;;;;;;;184.25;62.65;;;2.90;99.90;;;;;;5048423;28;20071;-77
2023/03/18 01:55:38;;;;;;;177.18;64.78;;;2.90;99.90;;;;;;5050674;28;20386;-76
2023/03/18 01:58:10;;;;;;;164.80;64.28;;;2.90;99.90;;;;;;5053876;28;20017;-78
2023/03/18 02:00:40;;;;;;;158.25;62.75;;;2.90;99.90;;;;;;5052255;28;20024;-76
2023/03/18 02:03:06;;;;;;;165.00;61.58;;;2.90;99.90;;;;;;5052102;28;20067;-77
2023/03/18 02:05:32;;;;;;;165.05;64.95;;;2.90;99.90;;;;;;5053487;28;20033;-76
2023/03/18 02:07:58;;;;;;;187.23;68.70;;;2.90;99.90;;;;;;5053207;28;20040;-76
2023/03/18 02:10:27;;;;;;;180.18;66.18;;;2.90;99.90;;;;;;5053511;28;20418;-76
2023/03/18 02:13:07;;;;;;;185.95;65.95;;;2.80;99.90;;;;;;5046011;28;20060;-77
2023/03/18 02:15:37;;;;;;;178.65;61.55;;;2.90;99.90;;;;;;5046274;28;20029;-75
2023/03/18 02:18:08;;;;;;;148.85;55.60;;;2.80;99.90;;;;;;5054439;28;20082;-76
2023/03/18 02:21:00;;;;;;;154.60;58.33;;;2.80;99.90;;;;;;5052438;28;20103;-77
2023/03/18 02:24:04;;;;;;;154.40;61.55;;;2.80;99.90;;;;;;5053332;28;20052;-75
2023/03/18 02:26:42;;;;;;;160.13;57.75;;;2.80;99.90;;;;;;5050567;28;20017;-75
2023/03/18 02:29:12;;;;;;;160.52;59.05;;;2.80;99.90;;;;;;5051866;28;20025;-77
2023/03/18 02:31:38;;;;;;;148.10;59.40;;;2.80;99.90;;;;;;5053106;28;20037;-77
2023/03/18 02:34:07;;;;;;;144.73;56.20;;;2.70;99.90;;;;;;5052947;28;20013;-77
2023/03/18 02:36:35;;;;;;;150.05;56.95;;;2.70;99.90;;;;;;5052665;28;20363;-77
2023/03/18 02:39:02;;;;;;;134.52;56.08;;;2.80;99.90;;;;;;5052874;28;20021;-77
2023/03/18 02:41:32;;;;;;;141.20;56.90;;;2.70;99.90;;;;;;5052772;28;20120;-75
2023/03/18 02:43:58;;;;;;;163.13;62.15;;;2.60;99.90;;;;;;5053454;28;20103;-77
2023/03/18 02:46:51;;;;;;;150.35;58.95;;;2.60;99.90;;;;;;5053138;28;20482;-76
2023/03/18 02:49:18;;;;;;;123.70;50.65;;;2.60;99.90;;;;;;5047512;28;20021;-76
2023/03/18 02:51:44;;;;;;;135.50;52.60;;;2.60;99.90;;;;;;5047032;28;20059;-76
2023/03/18 02:54:15;;;;;;;128.50;46.85;;;2.60;99.90;;;;;;5053033;28;20025;-75
2023/03/18 02:56:42;;;;;;;119.22;45.53;;;2.60;99.90;;;;;;5053148;28;20096;-76
2023/03/18 02:59:09;;;;;;;114.68;46.08;;;2.50;99.90;;;;;;5051353;28;20059;-75
2023/03/18 03:01:35;;;;;;;109.80;45.15;;;2.60;99.90;;;;;;5054403;28;20097;-75
2023/03/18 03:04:02;;;;;;;112.50;43.35;;;2.60;99.90;;;;;;5057128;28;20029;-74
2023/03/18 03:06:28;;;;;;;122.40;46.80;;;2.50;99.90;;;;;;5055501;28;20040;-75
2023/03/18 03:08:54;;;;;;;101.40;43.42;;;2.50;99.90;;;;;;5057342;28;20021;-74
2023/03/18 03:11:22;;;;;;;104.25;43.83;;;2.50;99.90;;;;;;5056990;28;20448;-76
2023/03/18 03:13:48;;;;;;;103.15;39.17;;;2.50;99.90;;;;;;5056403;28;20397;-77
2023/03/18 03:16:16;;;;;;;99.28;43.28;;;2.50;99.90;;;;;;5055882;28;20132;-77
2023/03/18 03:18:42;;;;;;;109.47;44.33;;;2.40;99.90;;;;;;5056118;28;20048;-75
2023/03/18 03:21:08;;;;;;;105.38;43.72;;;2.40;99.90;;;;;;5055731;28;20029;-75
2023/03/18 03:23:35;;;;;;;114.22;44.97;;;2.40;99.90;;;;;;5056735;28;20032;-76
2023/03/18 03:26:02;;;;;;;106.50;44.35;;;2.40;99.90;;;;;;5056672;28;20029;-76
2023/03/18 03:28:27;;;;;;;121.07;46.85;;;2.40;99.90;;;;;;5055453;28;20032;-76
2023/03/18 03:30:54;;;;;;;120.22;47.28;;;2.40;99.90;;;;;;5056911;28;20025;-77
2023/03/18 03:33:21;;;;;;;113.45;46.88;;;2.40;99.90;;;;;;5055668;28;20037;-76
2023/03/18 03:35:47;;;;;;;132.68;47.92;;;2.40;99.90;;;;;;5055419;28;20017;-76
2023/03/18 03:38:13;;;;;;;143.43;50.30;;;2.40;99.90;;;;;;5056581;28;20039;-78
2023/03/18 03:40:39;;;;;;;134.82;48.40;;;2.30;99.90;;;;;;5054952;28;20370;-74
2023/03/18 03:43:05;;;;;;;154.88;53.83;;;2.30;99.90;;;;;;5055183;28;20087;-75
2023/03/18 03:45:32;;;;;;;193.82;60.13;;;2.20;99.90;;;;;;5056510;28;20021;-76
2023/03/18 03:47:58;;;;;;;189.82;62.60;;;2.20;99.90;;;;;;5049753;28;20017;-76
2023/03/18 03:50:24;;;;;;;164.30;56.47;;;2.20;99.90;;;;;;5056312;28;20013;-76
2023/03/18 03:52:50;;;;;;;156.30;54.60;;;2.10;99.90;;;;;;5056327;28;20032;-75
2023/03/18 03:55:18;;;;;;;177.32;60.20;;;2.20;99.90;;;;;;5055914;28;20026;-75
2023/03/18 03:57:44;;;;;;;215.10;65.78;;;2.10;99.90;;;;;;5056250;28;20048;-74
2023/03/18 04:00:13;;;;;;;159.40;56.55;;;2.10;99.90;;;;;;5056114;28;20108;-75
2023/03/18 04:02:43;;;;;;;154.52;56.63;;;2.10;99.90;;;;;;5056345;28;20090;-75
2023/03/18 04:05:11;;;;;;;210.77;69.40;;;2.10;99.90;;;;;;5057008;28;20028;-77
2023/03/18 04:07:38;;;;;;;220.95;79.15;;;2.00;99.90;;;;;;5055584;28;20082;-75
2023/03/18 04:10:04;;;;;;;194.43;71.28;;;2.00;99.90;;;;;;5055743;28;20155;-75
2023/03/18 04:12:30;;;;;;;168.02;64.90;;;2.00;99.90;;;;;;5055818;28;20037;-74
2023/03/18 04:14:56;;;;;;;167.48;63.83;;;1.90;99.90;;;;;;5055297;28;20009;-76
2023/03/18 04:17:22;;;;;;;124.30;51.05;;;1.90;99.90;;;;;;5055838;28;20088;-77
2023/03/18 04:19:48;;;;;;;120.82;52.13;;;1.80;99.90;;;;;;5055737;28;20037;-77
2023/03/18 04:22:15;;;;;;;120.80;53.90;;;1.80;99.90;;;;;;5055328;28;20029;-75
2023/03/18 04:24:41;;;;;;;114.38;48.95;;;1.70;99.90;;;;;;5054415;28;20025;-74
2023/03/18 04:27:07;;;;;;;116.50;53.78;;;1.60;99.90;;;;;;5055860;28;20017;-74
2023/03/18 04:29:33;;;;;;;125.28;55.38;;;1.60;99.90;;;;;;5055278;28;20366;-75
2023/03/18 04:31:58;;;;;;;123.18;53.47;;;1.60;99.90;;;;;;5055249;28;20459;-75
2023/03/18 04:34:24;;;;;;;121.43;51.25;;;1.50;99.90;;;;;;5055188;28;20029;-75
2023/03/18 04:36:50;;;;;;;135.95;59.75;;;1.50;99.90;;;;;;5054866;28;20025;-74
2023/03/18 04:39:16;;;;;;;147.98;65.07;;;1.40;99.90;;;;;;5055503;28;20017;-75
2023/03/18 04:41:42;;;;;;;135.60;57.85;;;1.40;99.90;;;;;;5053961;28;20041;-75
2023/03/18 04:44:08;;;;;;;141.48;59.55;;;1.30;99.90;;;;;;5053626;28;20065;-76
2023/03/18 04:46:34;;;;;;;130.10;61.25;;;1.30;99.90;;;;;;5055325;28;20027;-74
2023/03/18 04:48:59;;;;;;;132.40;56.70;;;1.30;99.90;;;;;;5054941;28;20013;-76
2023/03/18 04:51:26;;;;;;;124.50;54.33;;;1.30;99.90;;;;;;5055129;28;20092;-75
2023/03/18 04:53:52;;;;;;;134.60;54.47;;;1.30;99.90;;;;;;5053967;28;20097;-76
2023/03/18 04:56:18;;;;;;;168.95;62.25;;;1.30;99.90;;;;;;5055343;28;20459;-75
2023/03/18 04:58:44;;;;;;;189.73;65.07;;;1.30;99.90;;;;;;5054827;28;20103;-76
2023/03/18 05:01:11;;;;;;;197.95;66.03;;;1.40;99.90;;;;;;5054953;28;20092;-74
2023/03/18 05:03:38;;;;;;;181.70;67.55;;;1.40;99.90;;;;;;5054347;28;20452;-76
2023/03/18 05:06:05;;;;;;;171.77;63.88;;;1.40;99.90;;;;;;5054884;28;20029;-75
2023/03/18 05:08:32;;;;;;;180.88;65.70;;;1.30;99.90;;;;;;5054798;28;20107;-75
2023/03/18 05:10:58;;;;;;;219.07;80.85;;;1.40;99.90;;;;;;5053398;28;20025;-75
2023/03/18 05:13:23;;;;;;;202.70;80.32;;;1.40;99.90;;;;;;5054348;28;20494;-74
2023/03/18 05:15:49;;;;;;;191.70;76.57;;;1.50;99.90;;;;;;5055425;28;20060;-75
2023/03/18 05:18:15;;;;;;;195.32;72.32;;;1.60;99.90;;;;;;5054781;28;20398;-75
2023/03/18 05:20:41;;;;;;;137.10;57.42;;;1.60;99.90;;;;;;5055067;28;20040;-75
2023/03/18 05:23:07;;;;;;;138.55;59.47;;;1.60;99.90;;;;;;5054523;28;20029;-77
2023/03/18 05:25:33;;;;;;;157.10;60.95;;;1.60;99.90;;;;;;5053733;28;20036;-76
2023/03/18 05:28:00;;;;;;;148.00;62.92;;;1.60;99.90;;;;;;5054331;28;20017;-75
2023/03/18 05:30:26;;;;;;;137.32;56.67;;;1.70;99.90;;;;;;5054754;28;20033;-76
2023/03/18 05:32:52;;;;;;;159.95;66.82;;;1.80;99.90;;;;;;5054055;28;20091;-76
2023/03/18 05:35:18;;;;;;;172.65;71.00;;;1.80;99.90;;;;;;5054344;28;20105;-75
2023/03/18 05:37:44;;;;;;;170.98;68.82;;;1.90;99.90;;;;;;5054147;28;20092;-76
2023/03/18 05:40:11;;;;;;;206.45;81.45;;;1.90;99.90;;;;;;5053691;28;20474;-74
2023/03/18 05:42:39;;;;;;;193.68;75.80;;;2.00;99.90;;;;;;5054070;28;20340;-76
2023/03/18 05:45:06;;;;;;;368.40;151.57;;;2.10;99.90;;;;;;5054127;28;20017;-76
2023/03/18 05:47:32;;;;;;;254.35;111.00;;;2.10;99.90;;;;;;5052728;28;20095;-75
2023/03/18 05:49:58;;;;;;;216.45;91.18;;;2.20;99.90;;;;;;5054217;28;20021;-77
2023/03/18 05:52:24;;;;;;;195.52;80.53;;;2.30;99.90;;;;;;5052758;28;20075;-76
2023/03/18 05:54:50;;;;;;;193.40;81.10;;;2.40;99.90;;;;;;5053901;28;20033;-76
2023/03/18 05:57:16;;;;;;;201.15;86.25;;;2.50;99.90;;;;;;5053394;28;20017;-77
2023/03/18 05:59:42;;;;;;;201.50;83.47;;;2.60;99.90;;;;;;5053110;28;20092;-76
2023/03/18 06:02:08;;;;;;;211.90;81.93;;;2.70;99.90;;;;;;5053678;28;20029;-76
2023/03/18 06:04:34;;;;;;;200.18;83.82;;;2.90;99.90;;;;;;5054491;28;20063;-78
2023/03/18 06:07:02;;;;;;;155.70;71.15;;;3.00;99.90;;;;;;5052846;28;20455;-78
2023/03/18 06:09:28;;;;;;;136.05;62.78;;;3.20;99.90;;;;;;5054365;28;20017;-77
2023/03/18 06:11:53;;;;;;;133.88;68.78;;;3.30;99.90;;;;;;5053832;28;20459;-78
2023/03/18 06:14:20;;;;;;;127.43;62.35;;;3.40;99.90;;;;;;5053335;28;20477;-76
2023/03/18 06:16:45;;;;;;;123.88;55.58;;;3.50;99.90;;;;;;5053388;28;20021;-76
2023/03/18 06:19:12;;;;;;;120.22;55.00;;;3.70;99.90;;;;;;5053365;28;20037;-77
2023/03/18 06:21:38;;;;;;;98.57;47.00;;;3.80;99.90;;;;;;5053159;28;20028;-76
2023/03/18 06:24:04;;;;;;;110.70;47.45;;;3.80;99.90;;;;;;5053696;28;20029;-79
2023/03/18 06:26:30;;;;;;;105.03;47.83;;;3.90;99.90;;;;;;5052246;28;20036;-79
2023/03/18 06:28:57;;;;;;;109.57;47.97;;;4.10;99.90;;;;;;5053006;28;20012;-77
2023/03/18 06:31:23;;;;;;;122.45;55.35;;;4.20;99.90;;;;;;5053446;28;20025;-78
2023/03/18 06:33:49;;;;;;;132.65;62.30;;;4.30;99.90;;;;;;5053180;28;20044;-76
2023/03/18 06:36:16;;;;;;;121.18;55.53;;;4.50;99.90;;;;;;5051852;28;20021;-78
2023/03/18 06:38:42;;;;;;;128.85;59.20;;;4.50;99.90;;;;;;5051655;28;20025;-77
2023/03/18 06:41:08;;;;;;;124.05;56.13;;;4.60;99.90;;;;;;5053199;28;20025;-79
2023/03/18 06:43:34;;;;;;;104.47;49.70;;;4.70;99.90;;;;;;5052839;28;20033;-78
2023/03/18 06:45:59;;;;;;;139.52;55.78;;;4.80;99.90;;;;;;5053554;28;20096;-80
2023/03/18 06:48:25;;;;;;;151.90;59.90;;;5.00;99.90;;;;;;5052105;28;20021;-79
2023/03/18 06:50:51;;;;;;;106.43;43.22;;;5.20;99.90;;;;;;5051141;28;20447;-79
2023/03/18 06:53:17;;;;;;;89.25;38.63;;;5.40;99.90;;;;;;5051448;28;20033;-79
2023/03/18 06:55:43;;;;;;;91.88;39.45;;;5.50;99.90;;;;;;5052735;28;20048;-78
2023/03/18 06:58:09;;;;;;;152.57;56.30;;;5.60;99.90;;;;;;5052907;28;20021;-79
2023/03/18 07:00:35;;;;;;;84.90;36.53;;;5.80;99.90;;;;;;5051345;28;20024;-78
2023/03/18 07:03:01;;;;;;;75.65;36.10;;;5.90;99.90;;;;;;5050954;28;20029;-78
2023/03/18 07:05:27;;;;;;;87.30;37.65;;;6.10;99.90;;;;;;5052136;28;20017;-77
2023/03/18 07:07:53;;;;;;;80.07;35.30;;;6.30;99.90;;;;;;5052062;28;20164;-76
2023/03/18 07:10:26;;;;;;;84.30;35.17;;;6.40;99.90;;;;;;5052294;28;20023;-78
2023/03/18 07:12:52;;;;;;;66.18;30.77;;;6.50;99.90;;;;;;5051037;28;20037;-77
2023/03/18 07:15:20;;;;;;;67.60;28.85;;;6.60;99.80;;;;;;5052431;28;20020;-78
2023/03/18 07:17:47;;;;;;;102.05;41.28;;;6.60;98.80;;;;;;5044591;28;20048;-78
2023/03/18 07:20:14;;;;;;;72.93;34.67;;;6.70;99.90;;;;;;5052702;28;20037;-78
2023/03/18 07:22:41;;;;;;;69.57;31.70;;;6.90;98.90;;;;;;5052692;28;20032;-77
2023/03/18 07:25:08;;;;;;;90.22;40.53;;;7.00;99.10;;;;;;5052729;28;20046;-78
2023/03/18 07:27:34;;;;;;;73.93;32.20;;;7.20;97.80;;;;;;5052249;28;20029;-78
2023/03/18 07:30:00;;;;;;;62.28;30.98;;;7.40;97.10;;;;;;5052490;28;20451;-79
2023/03/18 07:32:26;;;;;;;53.67;27.85;;;7.60;96.40;;;;;;5052192;28;20479;-78
2023/03/18 07:34:52;;;;;;;70.32;31.55;;;7.80;96.20;;;;;;5052854;28;20021;-79
2023/03/18 07:37:18;;;;;;;67.97;31.67;;;8.00;95.50;;;;;;5051429;28;20074;-79
2023/03/18 07:39:43;;;;;;;59.47;30.17;;;8.00;93.90;;;;;;5050466;28;20021;-77
2023/03/18 07:42:10;;;;;;;53.03;27.55;;;8.10;94.00;;;;;;5051339;28;20033;-78
2023/03/18 07:44:36;;;;;;;66.47;32.45;;;8.20;92.90;;;;;;5052339;28;20401;-81
2023/03/18 07:47:03;;;;;;;61.05;30.60;;;8.50;93.70;;;;;;5052719;28;20024;-80
2023/03/18 07:49:30;;;;;;;60.08;29.83;;;8.70;92.20;;;;;;5055316;28;20036;-80
2023/03/18 07:51:56;;;;;;;73.63;33.72;;;8.90;92.00;;;;;;5054623;28;20031;-75
2023/03/18 07:54:23;;;;;;;60.50;29.63;;;8.90;90.90;;;;;;5054919;28;20028;-76
2023/03/18 07:56:52;;;;;;;63.95;31.20;;;9.30;90.20;;;;;;5055768;28;20051;-77
2023/03/18 07:59:18;;;;;;;50.03;28.35;;;9.30;90.60;;;;;;5053131;28;20039;-76
2023/03/18 08:01:44;;;;;;;46.65;24.67;;;9.50;88.20;;;;;;5054581;28;20037;-77
2023/03/18 08:04:09;;;;;;;47.47;24.80;;;9.80;87.80;;;;;;5054959;28;20078;-80
2023/03/18 08:06:36;;;;;;;41.00;21.85;;;10.00;86.50;;;;;;5054839;28;20057;-78
2023/03/18 08:09:03;;;;;;;43.33;23.67;;;10.20;83.00;;;;;;5055403;28;20113;-78
2023/03/18 08:11:29;;;;;;;41.63;20.90;;;10.60;80.90;;;;;;5056623;28;20025;-78
2023/03/18 08:13:55;;;;;;;38.25;21.77;;;10.60;80.30;;;;;;5055210;28;20079;-79
2023/03/18 08:16:21;;;;;;;35.28;19.00;;;10.80;78.60;;;;;;5055501;28;20021;-80
2023/03/18 08:18:47;;;;;;;37.83;17.60;;;11.00;76.50;;;;;;5055882;28;20128;-80
2023/03/18 08:21:14;;;;;;;50.15;24.42;;;10.90;76.00;;;;;;5055698;28;20625;-78
2023/03/18 08:23:40;;;;;;;39.70;19.75;;;11.10;75.00;;;;;;5055174;28;20048;-79
2023/03/18 08:26:06;;;;;;;30.15;15.52;;;11.10;75.40;;;;;;5054511;28;20312;-81
2023/03/18 08:28:32;;;;;;;34.53;18.77;;;11.10;73.70;;;;;;5055890;28;20029;-78
2023/03/18 08:30:58;;;;;;;36.25;18.98;;;11.30;72.70;;;;;;5067944;28;20016;-78
2023/03/18 08:33:25;;;;;;;47.97;19.25;;;11.50;73.00;;;;;;5055585;28;20029;-80
2023/03/18 08:35:52;;;;;;;32.33;18.40;;;11.80;70.90;;;;;;5054584;28;20025;-80
2023/03/18 08:38:18;;;;;;;35.75;19.13;;;11.60;69.20;;;;;;5055053;28;20022;-79
2023/03/18 08:40:46;;;;;;;59.00;31.00;;;11.80;72.70;;;;;;5054998;28;20510;-79
2023/03/18 08:43:12;;;;;;;38.38;20.98;;;12.20;70.50;;;;;;5054758;28;20029;-80
2023/03/18 08:45:38;;;;;;;28.08;14.93;;;12.10;68.60;;;;;;5054829;28;20032;-80
2023/03/18 08:48:05;;;;;;;31.15;16.30;;;12.20;65.70;;;;;;5055844;28;20029;-79
2023/03/18 08:50:31;;;;;;;23.77;12.35;;;12.40;67.00;;;;;;5055927;28;20067;-78
2023/03/18 08:52:58;;;;;;;24.50;13.95;;;12.60;64.80;;;;;;5055605;28;20032;-79
2023/03/18 08:55:39;;;;;;;23.00;12.77;;;13.00;65.30;;;;;;5054297;28;20051;-78
2023/03/18 08:58:07;;;;;;;23.13;12.57;;;13.10;62.70;;;;;;5054625;28;20020;-77
2023/03/18 09:00:37;;;;;;;23.58;12.40;;;13.30;61.80;;;;;;5055037;28;20413;-79
2023/03/18 09:03:03;;;;;;;22.75;12.90;;;13.40;60.20;;;;;;5054067;28;20029;-77
2023/03/18 09:05:29;;;;;;;20.85;12.23;;;13.60;61.40;;;;;;5054621;28;20104;-79
2023/03/18 09:07:57;;;;;;;27.85;15.80;;;13.80;59.40;;;;;;5055630;28;20104;-81
2023/03/18 09:10:23;;;;;;;24.33;13.48;;;14.10;60.10;;;;;;5054876;28;20013;-78
2023/03/18 09:12:49;;;;;;;28.13;17.02;;;14.00;58.30;;;;;;5055326;28;20478;-81
2023/03/18 09:15:19;;;;;;;55.50;25.98;;;14.30;58.80;;;;;;5055442;28;20028;-79
2023/03/18 09:17:45;;;;;;;56.65;23.58;;;14.60;58.20;;;;;;5054211;28;20405;-79
2023/03/18 09:20:13;;;;;;;25.73;14.45;;;14.30;57.10;;;;;;5054913;28;20044;-81
2023/03/18 09:22:51;;;;;;;35.33;17.80;;;14.40;57.20;;;;;;5054848;28;20044;-84
2023/03/18 09:25:19;;;;;;;20.27;12.27;;;14.50;57.30;;;;;;5054613;28;20086;-80
2023/03/18 09:27:44;;;;;;;21.52;11.75;;;14.40;56.20;;;;;;5054831;28;20078;-78
2023/03/18 09:30:11;;;;;;;16.60;9.85;;;14.50;56.60;;;;;;5053729;28;20017;-77
2023/03/18 09:32:37;;;;;;;25.15;13.27;;;14.20;57.00;;;;;;5055368;28;20036;-78
2023/03/18 09:35:04;;;;;;;26.92;12.30;;;14.60;57.70;;;;;;5054717;28;20464;-79
2023/03/18 09:37:29;;;;;;;30.25;14.43;;;14.90;56.70;;;;;;5053419;28;20474;-78
2023/03/18 09:39:55;;;;;;;28.02;15.32;;;15.30;57.90;;;;;;5055046;28;20017;-78
2023/03/18 09:43:02;;;;;;;22.77;12.93;;;15.10;55.30;;;;;;5053849;28;20119;-77
2023/03/18 09:45:43;;;;;;;20.65;11.70;;;15.30;54.30;;;;;;5053495;28;20123;-79
2023/03/18 09:48:17;;;;;;;20.90;12.20;;;15.60;52.60;;;;;;5057077;28;20532;-80
2023/03/18 09:51:28;;;;;;;35.55;17.52;;;15.50;52.30;;;;;;5054157;28;20519;-81
2023/03/18 09:53:56;;;;;;;25.88;13.02;;;15.70;53.20;;;;;;4996319;28;20040;-81
2023/03/18 09:56:30;;;;;;;20.10;11.32;;;16.10;52.50;;;;;;4996193;28;20030;-80
2023/03/18 09:59:17;;;;;;;19.88;9.70;;;16.10;50.80;;;;;;5012366;28;20022;-81
2023/03/18 10:01:53;;;;;;;19.83;9.10;;;16.30;49.60;;;;;;4995818;28;20018;-81
2023/03/18 10:04:35;;;;;;;15.90;8.90;;;16.10;49.10;;;;;;4997088;28;20089;-79
2023/03/18 10:07:29;;;;;;;17.65;9.63;;;15.80;48.50;;;;;;4996247;28;20469;-80
2023/03/18 10:10:01;;;;;;;18.30;10.15;;;15.90;49.40;;;;;;5012272;28;20026;-81
2023/03/18 10:12:34;;;;;;;35.22;21.55;;;16.40;50.10;;;;;;5012267;28;20147;-81
2023/03/18 10:15:09;;;;;;;19.45;10.85;;;16.60;48.70;;;;;;5012710;28;20056;-80
2023/03/18 10:18:02;;;;;;;18.25;10.85;;;17.00;50.40;;;;;;4996066;28;20500;-80
2023/03/18 10:20:47;;;;;;;19.10;9.32;;;17.50;48.00;;;;;;5009161;28;20072;-82
2023/03/18 10:23:31;;;;;;;31.30;14.43;;;17.30;44.10;;;;;;4995456;28;20057;-79
2023/03/18 10:26:11;;;;;;;18.90;9.32;;;17.50;44.50;;;;;;5011822;28;20021;-79
2023/03/18 10:29:14;;;;;;;15.18;7.90;;;17.20;42.90;;;;;;5002041;28;20040;-87
2023/03/18 10:32:03;;;;;;;39.40;16.90;;;17.10;43.70;;;;;;5053100;28;20063;-76
2023/03/18 10:34:43;;;;;;;25.60;11.82;;;17.40;44.40;;;;;;5050443;28;20464;-78
2023/03/18 10:37:15;;;;;;;38.13;18.20;;;17.60;43.20;;;;;;5052487;28;21505;-79
2023/03/18 10:39:41;;;;;;;;;;;18.00;43.60;;;;;;5053265;28;20029;-80
2023/03/18 10:42:19;;;;;;;17.88;10.00;;;17.80;41.10;;;;;;5053094;28;19916;-82
2023/03/18 10:44:46;;;;;;;16.95;8.88;;;18.20;42.90;;;;;;5052047;28;20020;-81
2023/03/18 10:47:20;;;;;;;18.88;10.07;;;18.30;39.70;;;;;;5051885;28;20017;-76
2023/03/18 10:50:07;;;;;;;17.02;9.95;;;18.00;40.00;;;;;;5053296;28;20047;-77
2023/03/18 10:52:35;;;;;;;18.60;9.85;;;18.00;40.00;;;;;;5070865;28;20033;-77
2023/03/18 10:55:01;;;;;;;25.33;14.32;;;18.90;41.40;;;;;;5052473;28;20032;-79
2023/03/18 10:57:27;;;;;;;36.13;19.42;;;18.70;39.30;;;;;;5053752;28;20017;-77
2023/03/18 10:59:53;;;;;;;23.23;10.18;;;18.90;39.50;;;;;;5055368;28;20407;-77
2023/03/18 11:02:32;;;;;;;24.08;13.98;;;18.70;38.30;;;;;;5055308;28;20467;-77
2023/03/18 11:05:10;;;;;;;17.48;10.13;;;18.80;38.70;;;;;;5052478;28;20467;-77
2023/03/18 11:08:04;;;;;;;21.00;11.93;;;19.20;40.40;;;;;;5053629;28;20021;-79
2023/03/18 11:10:35;;;;;;;16.75;9.20;;;19.30;38.50;;;;;;5052256;28;20473;-79
2023/03/18 13:49:27;;;;;;;28.10;10.80;;;18.40;35.00;;;;;;5173724;27;20303;-81
2023/03/18 13:52:00;;;;;;;15.45;6.90;;;18.10;36.00;;;;;;5152973;27;20031;-78
2023/03/18 13:54:37;;;;;;;18.10;8.90;;;18.10;35.10;;;;;;5152213;27;20042;-79
2023/03/18 13:57:46;;;;;;;19.08;9.77;;;18.20;35.50;;;;;;5152835;27;20027;-80
2023/03/18 14:00:21;;;;;;;15.90;7.15;;;18.10;35.60;;;;;;5096382;27;20019;-79
2023/03/18 14:03:04;;;;;;;19.27;10.27;;;18.20;35.50;;;;;;5153068;27;20102;-80
2023/03/18 14:05:41;;;;;;;12.73;6.32;;;18.00;35.90;;;;;;5152702;27;20381;-80
2023/03/18 14:08:38;;;;;;;26.02;10.82;;;17.80;36.10;;;;;;5152488;27;20553;-79
2023/03/18 14:11:16;;;;;;;19.33;9.82;;;17.90;37.80;;;;;;5134039;27;20031;-80
2023/03/18 14:13:53;;;;;;;17.10;7.80;;;17.80;36.40;;;;;;5133756;27;20049;-79
2023/03/18 14:16:28;;;;;;;22.13;7.30;;;17.80;37.80;;;;;;5152507;27;20015;-80
2023/03/18 14:19:00;;;;;;;15.48;7.47;;;17.70;36.70;;;;;;5133860;27;20110;-81
2023/03/18 14:21:28;;;;;;;14.50;5.63;;;17.60;37.30;;;;;;5133457;27;20047;-79
2023/03/18 14:24:10;;;;;;;23.50;7.03;;;17.40;36.30;;;;;;5152286;27;20083;-80
2023/03/18 14:26:36;;;;;;;19.27;8.43;;;17.40;36.80;;;;;;5152653;27;20042;-79
2023/03/18 14:29:20;;;;;;;14.85;6.97;;;17.40;37.60;;;;;;5151794;27;20108;-79
2023/03/18 14:32:24;;;;;;;31.33;12.68;;;17.40;36.50;;;;;;5133862;27;20026;-79
2023/03/18 14:35:03;;;;;;;19.42;8.57;;;17.50;37.30;;;;;;5151840;27;20029;-79
2023/03/18 14:37:33;;;;;;;34.13;16.08;;;17.40;37.00;;;;;;5133688;27;20027;-80
2023/03/18 14:40:19;;;;;;;22.83;11.25;;;17.30;36.60;;;;;;5133544;27;20023;-78
2023/03/18 14:42:57;;;;;;;22.92;10.48;;;17.30;36.40;;;;;;5151576;27;20031;-79
2023/03/18 14:45:34;;;;;;;27.17;11.13;;;17.30;37.10;;;;;;5151945;27;20027;-77
2023/03/18 14:48:24;;;;;;;18.50;8.98;;;17.20;37.60;;;;;;5151709;27;20044;-78
2023/03/18 14:50:52;;;;;;;34.38;16.80;;;17.00;36.30;;;;;;5151889;27;20526;-80
2023/03/18 14:53:30;;;;;;;23.27;11.38;;;17.00;36.80;;;;;;5133151;27;20487;-79
2023/03/18 14:55:57;;;;;;;54.30;24.90;;;16.70;37.30;;;;;;5133003;27;20373;-79
2023/03/18 14:58:25;;;;;;;22.50;10.68;;;16.50;37.80;;;;;;5151646;27;20031;-79
2023/03/18 15:01:11;;;;;;;20.63;10.77;;;16.30;37.10;;;;;;5137239;27;20051;-79
2023/03/18 15:03:41;;;;;;;26.33;12.25;;;16.00;37.50;;;;;;5137433;27;20027;-79
2023/03/18 15:06:07;;;;;;;17.58;9.15;;;15.80;38.20;;;;;;5119517;27;20107;-79
2023/03/18 15:08:37;;;;;;;34.95;12.75;;;15.60;38.70;;;;;;5119110;27;20114;-79
2023/03/18 15:11:05;;;;;;;21.23;10.48;;;15.50;38.90;;;;;;5118826;27;20110;-79
2023/03/18 15:13:31;;;;;;;24.02;9.85;;;15.50;39.00;;;;;;5119152;27;20027;-78
2023/03/18 15:15:57;;;;;;;15.75;8.00;;;15.40;39.40;;;;;;5137223;27;20096;-80
2023/03/18 15:18:33;;;;;;;23.23;10.25;;;15.30;39.40;;;;;;5136887;27;20038;-78